createdAt,value
2018-06-12T00:01:23.520Z,12.95
2018-06-12T00:03:54.268Z,13.20
2018-06-12T00:06:24.967Z,12.98
2018-06-12T00:08:55.639Z,11.50
2018-06-12T00:11:26.335Z,11.38
2018-06-12T00:13:56.999Z,11.48
2018-06-12T00:16:27.703Z,12.28
2018-06-12T00:18:58.415Z,11.70
2018-06-12T00:21:29.107Z,12.18
2018-06-12T00:23:59.799Z,11.65
2018-06-12T00:26:30.503Z,13.25
2018-06-12T00:29:01.187Z,13.30
2018-06-12T00:31:31.896Z,12.65
2018-06-12T00:34:02.784Z,12.63
2018-06-12T00:36:33.483Z,11.88
2018-06-12T00:39:05.872Z,11.97
2018-06-12T00:41:36.306Z,11.88
2018-06-12T00:44:06.895Z,11.03
2018-06-12T00:46:37.623Z,13.30
2018-06-12T00:49:08.291Z,13.70
2018-06-12T00:51:38.987Z,12.37
2018-06-12T00:54:09.665Z,12.53
2018-06-12T00:56:51.807Z,11.88
2018-06-12T00:59:22.543Z,11.28
2018-06-12T01:01:53.243Z,12.18
2018-06-12T01:04:23.931Z,12.90
2018-06-12T01:06:54.639Z,12.80
2018-06-12T01:09:25.303Z,12.75
2018-06-12T01:11:56.000Z,13.00
2018-06-12T01:14:26.671Z,12.47
2018-06-12T01:16:57.356Z,13.48
2018-06-12T01:19:28.015Z,11.73
2018-06-12T01:21:58.727Z,13.22
2018-06-12T01:24:29.391Z,11.93
2018-06-12T01:27:06.719Z,12.63
2018-06-12T01:29:37.395Z,13.88
2018-06-12T01:32:08.095Z,10.88
2018-06-12T01:34:38.759Z,11.53
2018-06-12T01:37:09.451Z,12.68
2018-06-12T01:39:40.136Z,13.45
2018-06-12T01:42:10.864Z,13.70
2018-06-12T01:44:41.549Z,11.63
2018-06-12T01:47:12.282Z,12.75
2018-06-12T01:49:42.996Z,11.97
2018-06-12T01:52:13.676Z,11.95
2018-06-12T01:54:44.392Z,13.20
2018-06-12T01:57:15.072Z,12.00
2018-06-12T01:59:45.767Z,13.25
2018-06-12T02:02:16.443Z,13.30
2018-06-12T02:04:47.183Z,14.78
2018-06-12T02:07:17.859Z,13.35
2018-06-12T02:09:48.559Z,14.30
2018-06-12T02:12:19.435Z,13.93
2018-06-12T02:14:50.135Z,13.08
2018-06-12T02:17:20.915Z,13.25
2018-06-12T02:19:51.633Z,13.75
2018-06-12T02:22:22.475Z,14.85
2018-06-12T02:24:53.179Z,14.03
2018-06-12T02:27:23.878Z,12.23
2018-06-12T02:29:54.575Z,12.30
2018-06-12T02:32:25.268Z,14.40
2018-06-12T02:34:55.956Z,13.90
2018-06-12T02:37:26.644Z,11.48
2018-06-12T02:39:57.323Z,13.40
2018-06-12T02:42:28.027Z,12.80
2018-06-12T02:44:58.718Z,13.58
2018-06-12T02:47:29.412Z,11.80
2018-06-12T02:50:00.088Z,14.25
2018-06-12T02:52:30.979Z,12.88
2018-06-12T02:55:01.671Z,13.80
2018-06-12T02:57:32.376Z,13.62
2018-06-12T03:00:03.120Z,13.28
2018-06-12T03:02:33.893Z,14.13
2018-06-12T03:05:04.604Z,13.53
2018-06-12T03:07:35.291Z,13.22
2018-06-12T03:10:05.960Z,13.25
2018-06-12T03:12:36.651Z,13.13
2018-06-12T03:15:07.338Z,14.18
2018-06-12T03:17:38.133Z,13.22
2018-06-12T03:20:09.012Z,13.35
2018-06-12T03:22:39.671Z,13.78
2018-06-12T03:25:10.372Z,13.28
2018-06-12T03:27:41.039Z,13.32
2018-06-12T03:30:11.758Z,13.85
2018-06-12T03:32:42.416Z,13.83
2018-06-12T03:35:13.115Z,13.13
2018-06-12T03:37:43.788Z,13.38
2018-06-12T03:40:14.498Z,13.28
2018-06-12T03:42:45.168Z,12.98
2018-06-12T03:45:15.880Z,13.58
2018-06-12T03:47:46.535Z,13.58
2018-06-12T03:50:17.231Z,13.15
2018-06-12T03:52:47.911Z,14.35
2018-06-12T03:55:18.608Z,13.22
2018-06-12T03:57:49.303Z,13.08
2018-06-12T04:00:19.979Z,12.60
2018-06-12T04:02:50.705Z,12.30
2018-06-12T04:05:21.375Z,13.75
2018-06-12T04:07:52.075Z,13.60
2018-06-12T04:10:22.763Z,12.55
2018-06-12T04:12:53.469Z,14.20
2018-06-12T04:15:24.378Z,13.00
2018-06-12T04:17:55.040Z,14.65
2018-06-12T04:20:25.780Z,15.13
2018-06-12T04:22:55.469Z,13.15
2018-06-12T04:25:26.388Z,14.68
2018-06-12T04:27:57.083Z,13.18
2018-06-12T04:30:27.772Z,13.83
2018-06-12T04:32:58.443Z,14.43
2018-06-12T04:35:29.151Z,14.87
2018-06-12T04:37:59.846Z,15.05
2018-06-12T04:40:30.563Z,16.25
2018-06-12T04:43:01.241Z,15.18
2018-06-12T04:45:31.943Z,16.00
2018-06-12T04:48:02.607Z,13.70
2018-06-12T04:50:33.317Z,15.23
2018-06-12T04:53:04.027Z,14.55
2018-06-12T04:55:34.857Z,15.23
2018-06-12T04:58:05.607Z,14.50
2018-06-12T05:00:36.279Z,15.30
2018-06-12T05:03:07.027Z,14.90
2018-06-12T05:05:37.692Z,14.50
2018-06-12T05:08:08.395Z,12.82
2018-06-12T05:10:39.140Z,14.30
2018-06-12T05:13:09.976Z,13.78
2018-06-12T05:15:40.679Z,16.37
2018-06-12T05:18:11.363Z,15.48
2018-06-12T05:20:42.104Z,15.85
2018-06-12T05:23:12.779Z,15.98
2018-06-12T05:25:43.707Z,13.98
2018-06-12T05:28:14.388Z,15.80
2018-06-12T05:30:46.096Z,14.68
2018-06-12T05:33:17.577Z,16.30
2018-06-12T05:35:49.406Z,16.15
2018-06-12T05:38:21.340Z,13.88
2018-06-12T05:40:53.686Z,15.55
2018-06-12T05:43:25.162Z,14.73
2018-06-12T05:45:56.731Z,15.05
2018-06-12T05:48:28.326Z,15.58
2018-06-12T05:50:58.987Z,17.60
2018-06-12T05:53:29.688Z,16.25
2018-06-12T05:56:00.376Z,16.60
2018-06-12T05:58:31.109Z,17.92
2018-06-12T06:01:01.861Z,17.02
2018-06-12T06:03:32.615Z,16.75
2018-06-12T06:06:03.347Z,15.85
2018-06-12T06:08:34.052Z,17.05
2018-06-12T06:11:04.737Z,16.67
2018-06-12T06:13:35.440Z,16.52
2018-06-12T06:16:06.113Z,16.35
2018-06-12T06:18:36.827Z,15.25
2018-06-12T06:21:07.524Z,14.95
2018-06-12T06:23:38.239Z,15.48
2018-06-12T06:26:08.976Z,14.73
2018-06-12T06:28:39.675Z,16.10
2018-06-12T06:31:10.379Z,15.98
2018-06-12T06:33:41.096Z,16.23
2018-06-12T06:36:11.803Z,15.25
2018-06-12T06:38:42.703Z,15.58
2018-06-12T06:41:13.383Z,14.83
2018-06-12T06:43:44.076Z,14.68
2018-06-12T06:46:14.748Z,14.90
2018-06-12T06:48:45.454Z,16.05
2018-06-12T06:51:16.124Z,17.00
2018-06-12T06:53:46.840Z,15.23
2018-06-12T06:56:17.505Z,14.90
2018-06-12T06:58:48.224Z,15.20
2018-06-12T07:01:19.088Z,15.35
2018-06-12T07:03:49.823Z,16.75
2018-06-12T07:06:20.488Z,15.85
2018-06-12T07:08:51.200Z,15.53
2018-06-12T07:11:21.915Z,14.75
2018-06-12T07:13:52.931Z,16.17
2018-06-12T07:16:23.603Z,15.15
2018-06-12T07:21:59.239Z,15.72
2018-06-12T07:24:29.955Z,15.93
2018-06-12T07:27:00.623Z,13.60
2018-06-12T07:29:31.331Z,14.50
2018-06-12T07:32:02.349Z,14.68
2018-06-12T07:34:33.227Z,13.10
2018-06-12T07:37:03.919Z,14.78
2018-06-12T07:39:34.639Z,14.78
2018-06-12T07:42:05.311Z,14.50
2018-06-12T07:44:36.004Z,14.05
2018-06-12T07:47:06.672Z,14.13
2018-06-12T07:49:37.375Z,13.70
2018-06-12T07:52:08.069Z,15.03
2018-06-12T07:54:38.784Z,14.30
2018-06-12T07:57:09.452Z,13.43
2018-06-12T07:59:40.159Z,14.93
2018-06-12T08:02:10.863Z,14.58
2018-06-12T08:04:41.579Z,13.05
2018-06-12T08:07:12.239Z,14.60
2018-06-12T08:09:42.931Z,13.45
2018-06-12T08:12:13.604Z,15.10
2018-06-12T08:14:44.328Z,15.60
2018-06-12T08:17:15.040Z,13.75
2018-06-12T08:19:45.730Z,13.60
2018-06-12T08:22:16.423Z,13.53
2018-06-12T08:24:47.115Z,12.68
2018-06-12T08:27:17.783Z,12.78
2018-06-12T08:29:48.559Z,13.55
2018-06-12T08:32:19.344Z,12.45
2018-06-12T08:34:50.040Z,10.80
2018-06-12T08:37:20.719Z,12.90
2018-06-12T08:39:51.443Z,11.90
2018-06-12T08:42:22.311Z,12.23
2018-06-12T08:44:53.015Z,11.55
2018-06-12T08:47:23.695Z,12.25
2018-06-12T08:49:54.359Z,11.15
2018-06-12T08:52:25.528Z,11.38
2018-06-12T08:54:56.202Z,11.80
2018-06-12T08:57:26.905Z,11.75
2018-06-12T08:59:57.578Z,10.68
2018-06-12T09:02:28.268Z,11.75
2018-06-12T09:04:59.451Z,9.88
2018-06-12T09:07:30.111Z,11.65
2018-06-12T09:10:00.799Z,10.35
2018-06-12T09:12:31.699Z,10.55
2018-06-12T09:15:02.418Z,9.15
2018-06-12T09:17:33.259Z,9.15
2018-06-12T09:20:04.247Z,8.83
2018-06-12T09:22:34.947Z,10.18
2018-06-12T09:25:05.656Z,9.30
2018-06-12T09:27:41.976Z,9.95
2018-06-12T09:30:12.656Z,9.58
2018-06-12T09:32:43.347Z,9.38
2018-06-12T09:35:13.996Z,8.70
2018-06-12T09:37:44.683Z,7.95
2018-06-12T09:40:15.352Z,7.85
2018-06-12T09:42:46.057Z,7.83
2018-06-12T09:45:16.771Z,7.58
2018-06-12T09:47:47.504Z,8.03
2018-06-12T09:50:18.190Z,8.10
2018-06-12T09:52:48.907Z,7.58
2018-06-12T09:55:19.560Z,7.30
2018-06-12T09:57:50.332Z,7.12
2018-06-12T10:00:26.808Z,6.95
2018-06-12T10:02:57.488Z,7.17
2018-06-12T10:05:28.176Z,7.35
2018-06-12T10:07:58.923Z,7.33
2018-06-12T10:10:29.748Z,7.33
2018-06-12T10:13:00.448Z,7.90
2018-06-12T10:15:31.119Z,8.15
2018-06-12T10:18:01.805Z,6.87
2018-06-12T10:20:32.492Z,7.53
2018-06-12T10:23:03.143Z,7.60
2018-06-12T10:25:33.873Z,7.00
2018-06-12T10:28:04.523Z,7.62
2018-06-12T10:30:35.203Z,6.45
2018-06-12T10:33:06.056Z,7.72
2018-06-12T10:35:36.739Z,7.03
2018-06-12T10:38:07.387Z,7.75
2018-06-12T10:40:38.079Z,7.15
2018-06-12T10:43:08.966Z,7.37
2018-06-12T10:45:39.637Z,7.92
2018-06-12T10:48:10.299Z,7.20
2018-06-12T10:50:40.973Z,7.40
2018-06-12T10:53:11.667Z,8.43
2018-06-12T10:55:42.329Z,7.97
2018-06-12T10:58:13.011Z,8.68
2018-06-12T11:00:43.680Z,8.43
2018-06-12T11:03:14.365Z,8.35
2018-06-12T11:05:45.047Z,8.78
2018-06-12T11:08:15.732Z,8.68
2018-06-12T11:10:46.441Z,8.48
2018-06-12T11:13:17.343Z,7.87
2018-06-12T11:15:47.999Z,7.85
2018-06-12T11:18:18.687Z,8.33
2018-06-12T11:20:49.352Z,8.25
2018-06-12T11:23:20.279Z,7.80
2018-06-12T11:25:51.032Z,9.00
2018-06-12T11:28:21.739Z,8.73
2018-06-12T11:30:52.411Z,8.38
2018-06-12T11:33:23.104Z,8.43
2018-06-12T11:35:53.804Z,9.15
2018-06-12T11:38:24.463Z,8.13
2018-06-12T11:40:55.160Z,7.85
2018-06-12T11:43:25.859Z,8.10
2018-06-12T11:45:56.519Z,7.58
2018-06-12T11:48:27.207Z,7.28
2018-06-12T11:50:58.067Z,8.33
2018-06-12T11:53:28.784Z,7.87
2018-06-12T11:55:59.444Z,7.87
2018-06-12T11:58:30.163Z,7.25
2018-06-12T12:01:00.834Z,7.90
2018-06-12T12:03:31.739Z,8.10
2018-06-12T12:06:02.407Z,8.53
2018-06-12T12:08:33.101Z,8.00
2018-06-12T12:11:03.747Z,7.72
2018-06-12T12:13:34.445Z,8.50
2018-06-12T12:16:05.150Z,7.37
2018-06-12T12:18:35.824Z,6.75
2018-06-12T12:21:06.517Z,7.80
2018-06-12T12:23:37.223Z,7.03
2018-06-12T12:26:07.907Z,7.08
2018-06-12T12:28:38.598Z,7.12
2018-06-12T12:31:09.779Z,7.35
2018-06-12T12:33:40.488Z,6.20
2018-06-12T12:36:11.135Z,6.70
2018-06-12T12:38:41.849Z,6.97
2018-06-12T12:41:12.497Z,6.83
2018-06-12T12:43:43.198Z,6.15
2018-06-12T12:46:14.054Z,6.70
2018-06-12T12:48:44.744Z,6.12
2018-06-12T12:51:15.383Z,5.80
2018-06-12T12:53:46.083Z,5.90
2018-06-12T12:56:16.735Z,6.08
2018-06-12T12:58:47.407Z,6.00
2018-06-12T13:01:18.057Z,5.92
2018-06-12T13:03:48.739Z,6.50
2018-06-12T13:06:19.408Z,6.22
2018-06-12T13:08:50.088Z,6.30
2018-06-12T13:11:20.738Z,5.95
2018-06-12T13:13:51.416Z,6.40
2018-06-12T13:16:22.260Z,6.53
2018-06-12T13:18:52.958Z,7.62
2018-06-12T13:21:23.617Z,7.65
2018-06-12T13:23:54.295Z,6.20
2018-06-12T13:26:24.944Z,6.45
2018-06-12T13:28:55.635Z,6.80
2018-06-12T13:31:26.292Z,6.10
2018-06-12T13:33:56.996Z,5.10
2018-06-12T13:36:27.839Z,6.37
2018-06-12T13:38:58.530Z,6.12
2018-06-12T13:41:29.215Z,5.97
2018-06-12T13:43:59.906Z,7.65
2018-06-12T13:46:30.661Z,10.82
2018-06-12T13:49:01.530Z,10.80
2018-06-12T13:51:32.392Z,12.43
2018-06-12T13:54:03.121Z,11.88
2018-06-12T13:56:33.855Z,11.22
2018-06-12T13:59:04.935Z,11.83
2018-06-12T14:01:35.591Z,11.33
2018-06-12T14:04:06.344Z,11.00
2018-06-12T14:06:37.048Z,10.98
2018-06-12T14:09:08.299Z,10.82
2018-06-12T14:11:39.000Z,10.85
2018-06-12T14:14:09.694Z,10.82
2018-06-12T14:16:40.391Z,11.08
2018-06-12T14:19:11.047Z,10.35
2018-06-12T14:21:41.756Z,10.78
2018-06-12T14:24:12.424Z,10.72
2018-06-12T14:26:43.135Z,9.55
2018-06-12T14:29:13.795Z,11.83
2018-06-12T14:31:44.507Z,10.30
2018-06-12T14:34:15.193Z,11.20
2018-06-12T14:36:45.856Z,10.23
2018-06-12T14:39:16.547Z,11.00
2018-06-12T14:41:47.224Z,10.88
2018-06-12T14:44:17.912Z,12.03
2018-06-12T14:46:48.584Z,12.03
2018-06-12T14:49:19.276Z,12.15
2018-06-12T14:51:49.939Z,12.75
2018-06-12T14:54:20.678Z,15.90
2018-06-12T14:56:51.367Z,17.42
2018-06-12T14:59:22.067Z,18.55
2018-06-12T15:01:52.731Z,20.20
2018-06-12T15:04:23.451Z,21.07
2018-06-12T15:06:54.108Z,22.93
2018-06-12T15:09:24.787Z,21.52
2018-06-12T15:11:55.435Z,20.40
2018-06-12T15:14:26.123Z,20.88
2018-06-12T15:16:56.814Z,20.75
2018-06-12T15:19:27.505Z,21.73
2018-06-12T15:21:58.163Z,22.40
2018-06-12T15:24:28.858Z,22.87
2018-06-12T15:26:59.547Z,21.20
2018-06-12T15:29:30.247Z,19.45
2018-06-12T15:32:00.944Z,18.32
2018-06-12T15:34:31.719Z,18.42
2018-06-12T15:37:02.392Z,15.08
2018-06-12T15:39:33.119Z,17.90
2018-06-12T15:42:03.795Z,17.80
2018-06-12T15:44:34.504Z,17.75
2018-06-12T15:47:05.561Z,15.48
2018-06-12T15:49:36.241Z,16.45
2018-06-12T15:52:07.455Z,16.37
2018-06-12T15:54:38.164Z,16.93
2018-06-12T15:57:08.864Z,16.55
2018-06-12T15:59:39.539Z,15.68
2018-06-12T16:02:10.246Z,14.68
2018-06-12T16:04:41.067Z,15.50
2018-06-12T16:07:11.769Z,15.10
2018-06-12T16:09:42.488Z,15.50
2018-06-12T16:12:13.153Z,17.82
2018-06-12T16:14:43.835Z,18.32
2018-06-12T16:17:14.543Z,17.37
2018-06-12T16:19:45.420Z,16.80
2018-06-12T16:22:16.128Z,16.20
2018-06-12T16:24:46.812Z,15.30
2018-06-12T16:27:17.519Z,16.05
2018-06-12T16:29:48.191Z,15.65
2018-06-12T16:32:18.895Z,14.75
2018-06-12T16:34:49.575Z,16.00
2018-06-12T16:37:20.263Z,16.35
2018-06-12T16:39:50.943Z,16.70
2018-06-12T16:42:21.976Z,17.50
2018-06-12T16:44:52.639Z,15.60
2018-06-12T16:47:23.354Z,14.83
2018-06-12T16:49:54.020Z,15.38
2018-06-12T16:52:24.745Z,16.60
2018-06-12T16:54:55.418Z,14.95
2018-06-12T16:57:26.391Z,15.88
2018-06-12T16:59:57.076Z,16.05
2018-06-12T17:02:27.759Z,14.28
2018-06-12T17:04:58.419Z,13.88
2018-06-12T17:07:29.127Z,15.00
2018-06-12T17:09:59.791Z,15.05
2018-06-12T17:12:30.496Z,15.10
2018-06-12T17:15:01.203Z,15.23
2018-06-12T17:17:31.916Z,15.90
2018-06-12T17:20:02.655Z,16.00
2018-06-12T17:22:33.318Z,15.25
2018-06-12T17:25:04.087Z,14.65
2018-06-12T17:27:34.793Z,14.03
2018-06-12T17:30:06.029Z,14.23
2018-06-12T17:32:36.715Z,14.33
2018-06-12T17:35:07.536Z,14.13
2018-06-12T17:37:38.239Z,14.90
2018-06-12T17:40:08.904Z,13.35
2018-06-12T17:42:39.605Z,13.45
2018-06-12T17:45:10.288Z,13.20
2018-06-12T17:47:40.989Z,12.43
2018-06-12T17:50:11.688Z,12.47
2018-06-12T17:52:42.577Z,12.88
2018-06-12T17:55:13.306Z,11.93
2018-06-12T17:57:44.139Z,10.45
2018-06-12T18:00:14.802Z,11.20
2018-06-12T18:02:45.507Z,11.70
2018-06-12T18:05:16.207Z,12.53
2018-06-12T18:07:46.906Z,11.05
2018-06-12T18:10:17.576Z,12.73
2018-06-12T18:12:48.272Z,10.85
2018-06-12T18:15:18.959Z,12.05
2018-06-12T18:17:49.879Z,12.15
2018-06-12T18:20:21.907Z,11.50
2018-06-12T18:22:52.579Z,11.38
2018-06-12T18:25:23.284Z,10.03
2018-06-12T18:27:53.951Z,9.98
2018-06-12T18:30:24.667Z,10.60
2018-06-12T18:32:55.535Z,10.20
2018-06-12T18:35:26.227Z,9.25
2018-06-12T18:37:57.071Z,10.23
2018-06-12T18:40:27.763Z,9.83
2018-06-12T18:42:58.455Z,9.85
2018-06-12T18:45:29.324Z,9.90
2018-06-12T18:47:59.997Z,10.20
2018-06-12T18:50:30.731Z,10.15
2018-06-12T18:53:01.496Z,10.40
2018-06-12T18:55:32.164Z,10.82
2018-06-12T18:58:03.882Z,10.32
2018-06-12T19:00:34.579Z,9.90
2018-06-12T19:03:05.495Z,9.80
2018-06-12T19:05:36.198Z,10.48
2018-06-12T19:08:06.883Z,9.73
2018-06-12T19:10:37.556Z,10.68
2018-06-12T19:13:08.268Z,10.75
2018-06-12T19:15:38.987Z,9.88
2018-06-12T19:18:09.999Z,9.75
2018-06-12T19:20:40.662Z,10.05
2018-06-12T19:23:11.359Z,9.73
2018-06-12T19:25:42.042Z,10.25
2018-06-12T19:28:12.755Z,10.40
2018-06-12T19:30:43.416Z,9.40
2018-06-12T19:33:14.112Z,9.55
2018-06-12T19:35:44.834Z,9.00
2018-06-12T19:38:15.675Z,10.00
2018-06-12T19:40:46.347Z,9.68
2018-06-12T19:43:17.019Z,10.00
2018-06-12T19:45:47.896Z,10.55
2018-06-12T19:48:18.936Z,9.83
2018-06-12T19:50:49.690Z,10.03
2018-06-12T19:53:22.083Z,9.33
2018-06-12T19:55:52.772Z,8.53
2018-06-12T19:58:23.455Z,8.68
2018-06-12T20:00:54.108Z,10.80
2018-06-12T20:03:24.807Z,9.63
2018-06-12T20:05:55.504Z,9.33
2018-06-12T20:08:26.196Z,8.95
2018-06-12T20:10:56.884Z,9.88
2018-06-12T20:13:27.547Z,9.30
2018-06-12T20:15:58.250Z,9.13
2018-06-12T20:18:28.915Z,9.30
2018-06-12T20:20:59.624Z,11.18
2018-06-12T20:23:30.311Z,12.00
2018-06-12T20:26:01.017Z,11.45
2018-06-12T20:28:31.679Z,11.70
2018-06-12T20:31:02.372Z,10.50
2018-06-12T20:33:33.110Z,14.35
2018-06-12T20:36:04.173Z,13.10
2018-06-12T20:38:35.096Z,14.33
2018-06-12T20:41:06.517Z,12.65
2018-06-12T20:43:37.194Z,14.70
2018-06-12T20:46:07.904Z,16.48
2018-06-12T20:48:38.604Z,15.63
2018-06-12T20:51:09.307Z,15.08
2018-06-12T20:53:39.990Z,15.55
2018-06-12T20:56:10.693Z,16.80
2018-06-12T20:58:41.559Z,15.32
2018-06-12T21:01:12.265Z,15.40
2018-06-12T21:03:42.967Z,16.85
2018-06-12T21:06:14.500Z,15.72
2018-06-12T21:08:45.183Z,15.40
2018-06-12T21:11:15.884Z,14.85
2018-06-12T21:13:46.566Z,15.65
2018-06-12T21:16:17.471Z,15.78
2018-06-12T21:18:48.136Z,14.05
2018-06-12T21:21:18.839Z,15.90
2018-06-12T21:23:49.541Z,14.07
2018-06-12T21:26:20.624Z,16.97
2018-06-12T21:28:51.851Z,14.83
2018-06-12T21:31:22.559Z,17.35
2018-06-12T21:33:53.242Z,17.37
2018-06-12T21:36:23.952Z,17.12
2018-06-12T21:38:54.820Z,16.25
2018-06-12T21:41:25.527Z,16.62
2018-06-12T21:43:56.211Z,17.40
2018-06-12T21:46:26.917Z,16.27
2018-06-12T21:48:57.623Z,17.15
2018-06-12T21:51:28.299Z,17.32
2018-06-12T21:53:59.024Z,17.25
2018-06-12T21:56:29.703Z,19.30
2018-06-12T21:59:00.404Z,17.67
2018-06-12T22:01:31.136Z,18.32
2018-06-12T22:04:02.015Z,15.83
2018-06-12T22:06:32.724Z,17.05
2018-06-12T22:09:04.064Z,16.45
2018-06-12T22:11:35.341Z,18.02
2018-06-12T22:14:06.501Z,16.32
2018-06-12T22:16:38.174Z,15.35
2018-06-12T22:19:08.865Z,14.35
2018-06-12T22:21:39.547Z,15.10
2018-06-12T22:24:11.109Z,12.70
2018-06-12T22:26:42.440Z,12.43
2018-06-12T22:29:14.040Z,13.05
2018-06-12T22:31:45.775Z,11.10
2018-06-12T22:34:16.455Z,12.07
2018-06-12T22:36:47.159Z,12.80
2018-06-12T22:39:17.835Z,11.22
2018-06-12T22:41:48.534Z,12.30
2018-06-12T22:44:19.211Z,13.38
2018-06-12T22:46:49.918Z,13.35
2018-06-12T22:49:20.587Z,13.18
2018-06-12T22:51:51.275Z,14.28
2018-06-12T22:54:21.968Z,12.88
2018-06-12T22:56:52.663Z,12.82
2018-06-12T22:59:23.363Z,12.23
2018-06-12T23:01:54.075Z,13.75
2018-06-12T23:04:24.751Z,14.38
2018-06-12T23:06:55.488Z,14.10
2018-06-12T23:09:26.175Z,15.35
2018-06-12T23:11:57.236Z,12.85
2018-06-12T23:14:27.911Z,14.70
2018-06-12T23:16:58.683Z,13.62
2018-06-12T23:19:29.483Z,13.65
2018-06-12T23:22:01.368Z,13.53
2018-06-12T23:24:32.036Z,12.37
2018-06-12T23:27:02.757Z,11.97
2018-06-12T23:29:33.655Z,13.32
2018-06-12T23:32:04.344Z,14.40
2018-06-12T23:34:35.044Z,13.22
2018-06-12T23:37:05.711Z,11.97
2018-06-12T23:39:36.422Z,13.58
2018-06-12T23:42:07.460Z,12.03
2018-06-12T23:44:38.164Z,11.00
2018-06-12T23:47:08.885Z,11.53
2018-06-12T23:49:39.571Z,11.68
2018-06-12T23:52:10.263Z,11.60
2018-06-12T23:54:40.967Z,11.30
2018-06-12T23:57:11.643Z,10.25
2018-06-12T23:59:42.347Z,9.38
